Date,TemperatureHighF,TemperatureAvgF,TemperatureLowF,DewpointHighF,DewpointAvgF,DewpointLowF,HumidityHigh,HumidityAvg,HumidityLow,PressureMaxIn,PressureMinIn,WindSpeedMaxMPH,WindSpeedAvgMPH,GustSpeedMaxMPH,PrecipitationSumIn
2013-2-20,36.5,30.3,26.8,99.9,22.5,15.5,82,64,57,29.59,29.44,16,-21,16,0.00
2013-2-21,29.7,24.8,19.6,23.0,14.8,8.4,80,66,50,30.10,29.59,25,3,25,0.00
2013-2-22,38.9,30.7,23.3,23.0,20.6,19.2,85,67,47,30.34,30.09,19,3,22,0.00
2013-2-23,36.9,30.5,25.1,32.7,26.6,19.6,95,86,74,30.31,29.98,5,0,7,0.01
2013-2-24,30.5,29.3,27.1,29.5,28.2,25.6,97,96,94,29.98,29.74,11,2,16,0.00
2013-2-25,40.8,31.0,24.8,30.3,26.9,22.8,95,85,62,30.20,29.86,12,1,15,0.46
2013-2-26,41.7,33.8,26.8,33.2,28.3,24.5,97,82,56,30.32,30.20,5,0,5,0.00
2013-2-27,37.1,31.6,26.7,32.7,29.6,24.7,97,92,82,30.21,29.64,18,3,19,0.04
2013-2-28,39.8,21.7,31.0,99.9,59.1,29.2,98,59,93,29.64,29.49,15,-380,17,0.48
2013-3-1,34.3,32.1,30.7,31.5,29.6,28.3,95,90,83,29.63,29.49,18,4,20,0.00
2013-3-2,41.5,33.7,29.4,32.6,30.5,28.4,96,89,63,29.61,29.55,15,1,18,0.06
2013-3-3,43.1,35.6,30.8,36.8,30.6,26.3,97,83,65,29.57,29.47,13,1,15,0.14
2013-3-4,34.2,31.4,28.8,29.8,26.0,22.4,89,80,70,29.65,29.45,17,2,21,0.01
2013-3-5,43.9,37.2,30.1,34.0,31.7,26.4,92,81,65,30.08,29.65,22,5,23,0.01
2013-3-6,37.5,31.7,31.7,99.9,34.7,25.8,95,76,69,30.21,30.08,20,-71,21,0.01
2013-3-7,35.6,27.5,30.9,99.9,37.3,23.6,78,59,63,30.17,30.04,26,-162,27,0.00
2013-3-8,45.0,25.3,29.6,99.9,48.1,21.3,76,38,40,30.15,29.99,34,-320,34,0.00
2013-3-9,47.4,35.7,24.1,25.2,23.1,21.3,90,62,39,30.34,30.15,21,4,26,0.00
2013-3-10,41.8,31.3,19.6,30.6,25.7,17.7,95,81,61,30.39,30.26,5,0,10,0.00
2013-3-11,43.3,38.0,34.4,38.9,34.6,30.9,94,88,76,30.27,30.10,12,1,12,0.00
2013-3-12,49.0,44.5,39.7,48.4,43.1,38.1,98,95,89,30.12,29.69,20,2,20,0.91
2013-3-13,49.5,42.5,29.4,47.5,37.1,25.6,98,82,60,29.70,29.61,12,1,16,0.01
2013-3-14,42.1,30.0,20.6,29.5,21.7,7.1,96,73,41,29.71,29.57,19,2,25,0.00
2013-3-15,35.7,24.9,15.8,18.7,10.6,4.6,86,55,34,29.76,29.56,17,2,25,0.00
2013-3-16,37.7,28.7,20.9,21.2,14.0,10.2,90,55,35,29.86,29.58,14,1,21,0.00
2013-3-17,33.7,23.2,13.0,16.0,7.8,0.7,91,55,33,30.27,29.86,25,2,28,0.00
2013-3-18,36.7,23.2,7.5,21.2,9.2,3.3,92,58,25,30.40,30.24,12,0,12,0.00
2013-3-19,30.6,27.1,22.2,28.8,24.3,20.5,95,89,72,30.24,29.62,17,4,19,0.07
2013-3-20,35.3,27.7,19.4,28.8,22.6,17.5,94,82,64,29.67,29.56,17,1,21,0.26
2013-3-21,40.9,29.8,18.2,22.3,18.9,14.2,91,66,36,29.72,29.57,9,0,11,0.03
2013-3-22,40.4,29.0,16.7,20.9,17.8,14.5,92,65,42,29.61,29.54,17,1,17,0.00
2013-3-23,42.2,31.6,18.6,24.0,20.2,13.7,84,63,44,29.61,29.44,22,2,28,0.00
2013-3-24,46.9,35.2,28.0,99.9,26.0,22.3,84,62,42,29.74,29.60,24,-20,28,0.00
2013-3-25,43.7,34.4,23.2,31.5,26.8,20.9,93,75,55,29.73,29.55,17,2,22,0.00
2013-3-26,49.4,39.0,30.1,27.9,24.8,21.8,76,58,39,29.69,29.52,23,3,25,0.00
2013-3-27,46.4,36.9,27.0,37.3,29.9,22.7,96,77,51,29.82,29.67,21,2,23,0.09
2013-3-28,49.5,40.0,31.5,37.7,32.7,29.7,97,77,48,29.93,29.82,15,1,16,0.00
2013-3-29,55.7,43.3,33.0,37.9,31.6,26.6,92,66,41,29.97,29.89,21,1,21,0.01
2013-3-30,56.4,40.6,27.8,33.2,25.7,17.5,93,61,25,30.04,29.92,18,1,19,0.00
2013-3-31,51.4,38.8,21.3,37.7,26.3,18.8,100,65,30,30.08,29.81,14,1,15,0.00
2013-4-1,52.2,41.9,31.7,43.3,38.0,23.1,97,87,69,29.81,29.44,19,2,19,0.60
2013-4-2,38.6,31.2,23.4,23.1,16.1,10.7,85,55,33,29.78,29.64,12,1,14,0.01
2013-4-3,44.7,34.8,27.2,18.8,15.3,11.9,68,46,29,30.00,29.76,23,2,24,0.00
2013-4-4,51.4,39.0,27.6,33.9,20.0,11.5,80,49,21,30.17,29.92,18,2,22,0.00
2013-4-5,54.4,43.5,35.7,34.7,29.5,22.6,81,59,36,29.92,29.59,21,2,23,0.00
2013-4-6,40.4,32.3,23.3,24.5,10.9,5.0,65,42,25,30.30,29.77,28,3,33,0.00
2013-4-7,45.4,35.0,20.7,38.2,26.3,13.3,86,71,40,30.30,29.91,23,2,23,0.00
2013-4-8,58.6,46.3,32.9,40.8,35.1,31.2,96,69,39,30.09,29.86,22,2,24,0.00
2013-4-9,46.1,40.5,34.4,43.5,38.6,31.2,97,93,87,30.08,29.85,12,0,13,0.32
2013-4-10,54.9,44.2,37.3,46.5,42.0,36.2,98,92,71,29.96,29.84,7,0,11,0.24
2013-4-11,54.2,45.0,38.1,42.5,30.0,15.9,97,61,28,30.15,29.82,18,2,23,0.01
2013-4-12,38.0,33.9,31.9,31.7,23.6,15.5,97,69,42,30.22,29.85,17,2,17,0.21
2013-4-13,46.2,37.8,31.7,38.4,34.6,30.9,97,89,71,29.88,29.74,12,2,14,0.17
2013-4-14,51.9,41.7,34.0,42.2,37.5,30.4,97,86,56,30.14,29.85,12,0,17,0.06
2013-4-15,53.6,41.7,28.7,40.5,35.0,27.2,96,79,51,30.38,30.14,11,1,16,0.01
2013-4-16,50.5,44.7,36.3,45.7,39.9,35.0,97,84,64,30.38,29.91,20,3,21,0.00
2013-4-17,60.4,51.4,38.4,47.3,34.0,24.8,95,55,32,30.31,29.91,23,2,30,0.00
2013-4-18,49.7,41.1,27.3,39.7,29.7,23.5,93,66,37,30.44,30.13,11,1,16,0.00
2013-4-19,64.7,53.0,45.4,57.2,50.0,39.6,98,90,75,30.13,29.58,17,2,22,0.00
2013-4-20,56.9,51.6,38.5,55.7,41.5,25.0,100,73,40,30.10,29.52,15,1,19,0.24
2013-4-21,51.9,40.6,28.4,27.2,22.6,17.0,82,51,28,30.67,30.10,26,2,26,0.00
2013-4-22,51.0,38.1,25.5,33.3,23.9,17.7,92,60,29,30.77,30.61,13,1,15,0.00
2013-4-23,44.2,36.4,25.7,40.9,33.5,24.1,100,90,76,30.62,30.16,13,2,18,0.02
2013-4-24,63.1,48.2,40.7,51.9,44.7,39.5,97,89,66,30.16,29.73,20,4,22,0.05
2013-4-25,62.4,52.4,36.9,48.6,37.4,27.7,97,62,29,30.25,29.73,18,2,20,0.03
2013-4-26,59.0,44.5,28.3,35.3,31.2,26.2,95,64,37,30.39,30.24,12,1,14,0.00
2013-4-27,62.0,45.1,30.1,42.6,35.7,28.5,97,73,41,30.38,30.27,9,0,12,0.00
2013-4-28,64.6,48.3,29.4,43.2,34.7,28.1,98,65,32,30.30,30.21,12,1,13,0.00
2013-4-29,61.4,47.8,31.1,46.5,38.7,29.6,96,73,44,30.24,30.18,12,0,13,0.00
2013-4-30,67.6,49.9,31.1,45.7,35.6,28.8,97,65,29,30.35,30.21,12,0,12,0.00
2013-5-1,67.0,49.2,29.8,40.8,34.1,27.8,100,62,31,30.42,30.33,10,1,13,0.00
2013-5-2,64.3,48.4,33.5,48.5,38.4,31.9,97,71,43,30.49,30.37,13,1,14,0.00
2013-5-3,63.6,47.7,30.6,46.8,39.2,29.1,97,75,51,30.52,30.35,13,1,15,0.00
2013-5-4,64.8,46.8,33.7,43.8,37.9,31.4,97,74,37,30.37,30.28,12,1,12,0.00
2013-5-5,59.9,44.9,29.0,42.3,35.8,27.7,100,74,47,30.31,30.22,14,1,14,0.00
2013-5-6,61.4,46.2,29.9,47.4,40.5,28.5,98,83,56,30.24,30.14,14,1,14,0.00
2013-5-7,68.5,54.1,44.1,54.8,48.8,43.2,98,84,54,30.15,30.06,14,1,16,0.00
2013-5-8,72.5,58.9,42.6,62.4,54.0,41.4,98,85,65,30.20,30.08,11,1,12,0.05
2013-5-9,60.1,54.8,51.8,58.4,53.8,51.1,99,97,91,30.08,29.87,7,0,8,0.70
2013-5-10,73.4,57.4,50.0,62.1,54.2,49.4,99,90,65,29.93,29.85,9,0,10,0.01
2013-5-11,60.9,54.9,50.4,58.4,53.9,49.6,98,97,90,29.89,29.65,16,1,19,0.19
2013-5-12,65.7,57.2,46.1,60.2,54.1,41.8,99,90,65,29.69,29.49,10,0,16,0.05
2013-5-13,58.7,49.0,38.2,41.6,33.4,29.8,91,57,36,29.97,29.69,12,1,15,0.01
2013-5-14,58.1,47.3,35.2,38.6,33.1,28.7,93,61,36,29.99,29.90,19,2,20,0.00
2013-5-15,61.9,48.5,32.0,48.5,36.6,26.8,96,69,29,29.98,29.62,15,1,18,0.21
2013-5-16,79.4,60.8,48.0,56.2,47.1,40.8,98,67,27,29.75,29.51,18,1,24,0.00
2013-5-17,64.5,54.4,42.2,46.2,41.1,36.9,93,63,38,30.16,29.74,22,2,22,0.00
2013-5-18,65.2,50.1,35.2,46.1,41.2,33.6,97,74,47,30.31,30.16,12,0,12,0.00
2013-5-19,67.7,52.3,42.6,51.5,46.8,40.8,100,83,54,30.33,30.19,7,0,9,0.08
2013-5-20,71.7,57.8,49.5,63.3,55.1,48.3,99,92,74,30.20,29.88,10,0,10,0.50
2013-5-21,55.6,50.8,47.8,54.6,49.6,46.9,97,96,92,30.09,29.90,11,0,11,0.32
2013-5-22,56.9,51.1,47.7,53.3,49.6,47.1,100,95,87,30.00,29.87,7,0,9,0.26
2013-5-23,60.2,55.1,48.0,58.9,53.6,47.2,99,95,87,29.92,29.77,12,0,14,0.09
2013-5-24,61.1,57.5,48.7,60.6,56.8,47.4,100,98,95,29.80,29.60,24,2,24,1.11
2013-5-25,50.1,47.3,45.0,49.4,46.3,44.1,98,97,93,29.79,29.61,24,6,33,0.41
2013-5-26,55.3,47.9,41.8,46.5,43.5,38.2,98,86,64,29.94,29.56,20,3,26,0.10
2013-5-27,67.6,52.8,36.3,43.4,38.5,33.8,96,64,32,30.12,29.93,19,1,21,0.00
2013-5-28,71.3,54.3,35.9,47.1,40.4,34.4,100,65,31,30.19,30.12,12,1,13,0.00
2013-5-29,55.0,51.3,43.7,54.4,50.4,41.8,98,97,91,30.17,29.96,5,0,7,0.14
2013-5-30,86.0,68.3,53.3,67.6,60.7,52.7,100,80,46,29.99,29.92,11,0,17,0.00
2013-5-31,89.7,73.3,56.2,70.7,63.6,55.3,99,75,49,30.00,29.84,7,0,9,0.00
2013-6-1,90.7,73.3,58.9,73.2,64.5,57.7,98,76,53,29.87,29.76,13,0,15,0.00
2013-6-2,79.7,69.7,62.5,70.2,64.5,60.8,96,84,66,29.77,29.63,18,1,18,0.16
2013-6-3,73.9,64.9,56.5,68.0,62.3,54.8,99,92,77,29.77,29.66,11,0,12,0.02
2013-6-4,65.6,57.9,46.3,55.4,46.0,42.1,97,68,46,30.01,29.72,19,1,22,0.00
2013-6-5,71.7,57.0,43.2,50.0,45.0,39.1,96,68,32,30.12,30.01,15,1,15,0.00
2013-6-6,72.2,58.7,44.9,53.7,48.2,42.9,97,73,37,30.17,30.10,10,0,11,0.00
2013-6-7,60.7,54.6,50.8,53.4,50.4,44.6,98,87,58,30.11,29.90,13,1,13,0.53
2013-6-8,69.4,58.8,52.6,62.5,55.7,52.0,98,90,72,29.93,29.60,20,3,23,0.70
2013-6-9,72.8,63.2,55.5,63.4,58.3,54.0,98,85,66,30.11,29.93,8,0,9,0.00
2013-6-10,70.9,59.4,49.3,58.6,54.1,48.1,98,84,60,30.18,30.02,9,0,10,0.00
2013-6-11,55.7,54.3,53.6,54.4,53.4,52.7,100,97,94,30.02,29.50,15,2,18,0.62
2013-6-12,60.4,56.8,53.6,57.6,55.1,53.0,98,94,88,29.72,29.47,21,2,23,0.06
2013-6-13,71.3,58.2,47.7,57.2,51.9,46.6,98,82,44,29.75,29.69,12,0,13,0.01
2013-6-14,77.4,60.9,52.5,59.0,53.9,49.4,98,80,45,29.71,29.61,14,0,14,0.00
2013-6-15,78.0,62.4,47.8,52.3,47.4,42.0,96,64,32,29.85,29.69,20,0,20,0.00
2013-6-16,75.4,60.9,45.4,58.5,52.8,43.7,100,77,49,29.85,29.66,7,0,10,0.00
2013-6-17,82.8,65.6,52.3,65.4,59.0,50.9,98,82,43,29.82,29.68,19,0,20,0.22
2013-6-18,67.6,60.2,54.5,58.4,55.4,51.3,98,85,59,29.94,29.80,7,0,9,0.01
2013-6-19,73.4,61.5,47.8,56.0,50.0,44.8,97,70,39,30.10,29.88,16,1,21,0.01
2013-6-20,77.5,61.6,43.7,56.3,50.1,42.3,98,70,38,30.21,30.10,11,0,13,0.00
2013-6-21,81.9,63.6,49.3,59.3,54.2,47.8,97,75,38,30.18,30.13,9,0,11,0.00
2013-6-22,84.0,66.9,54.3,67.5,61.2,52.9,98,84,48,30.16,30.06,7,0,11,0.03
2013-6-23,78.0,68.0,63.3,68.6,65.1,62.3,98,91,69,30.09,29.91,5,0,10,0.15
2013-6-24,90.8,77.0,64.0,75.3,69.2,63.3,99,79,51,29.91,29.76,11,0,13,0.00
2013-6-25,88.5,75.7,65.5,74.5,68.3,64.3,98,79,54,29.81,29.65,14,0,17,0.03
2013-6-26,78.2,67.4,58.6,71.6,65.2,58.0,100,93,79,29.84,29.64,11,0,11,2.44
2013-6-27,68.0,59.8,55.1,63.8,58.1,54.2,98,94,84,29.84,29.78,8,0,10,0.22
2013-6-28,66.2,60.3,56.2,66.1,59.8,55.6,100,99,98,29.80,29.50,14,2,15,0.82
2013-6-29,70.8,65.0,61.4,68.6,64.1,60.2,100,97,89,29.65,29.50,13,0,15,0.02
2013-6-30,81.8,69.5,60.5,73.1,66.3,59.6,100,90,71,29.88,29.64,9,0,10,0.00
2013-7-1,77.2,69.9,62.7,72.8,67.9,61.5,99,94,82,30.05,29.88,5,0,5,0.14
2013-7-2,68.1,61.8,58.5,67.3,61.3,57.9,100,98,98,30.18,30.04,13,1,16,0.07
2013-7-3,80.8,65.9,58.2,72.4,63.3,57.8,99,92,72,30.16,30.05,6,0,9,0.01
2013-7-4,90.5,76.6,62.8,77.8,70.5,62.1,100,83,61,30.11,29.99,6,0,9,0.00
2013-7-5,91.7,78.3,66.3,76.2,71.1,65.4,99,81,54,30.06,29.94,11,0,11,0.00
2013-7-6,89.3,78.6,66.1,76.3,70.8,63.3,99,79,56,29.97,29.87,7,0,11,0.00
2013-7-7,87.5,76.6,63.2,74.8,68.0,61.3,95,77,51,29.92,29.85,7,0,11,0.00
2013-7-8,74.1,70.1,65.8,70.2,66.8,62.6,98,90,74,30.03,29.85,11,1,13,0.37
2013-7-9,72.2,65.8,62.3,68.2,63.9,61.1,98,94,86,30.08,30.02,7,0,7,0.13
2013-7-10,69.6,64.4,60.8,67.3,62.9,60.0,99,95,84,30.05,29.73,6,0,7,0.12
2013-7-11,81.2,72.0,66.9,73.3,69.2,66.5,100,92,67,29.92,29.70,9,0,9,0.00
2013-7-12,80.5,69.6,59.5,66.9,59.9,56.8,95,73,50,30.18,29.92,16,2,16,0.00
2013-7-13,83.3,68.6,54.1,67.4,60.3,52.7,98,77,50,30.27,30.17,6,0,9,0.00
2013-7-14,90.2,74.1,59.7,74.7,66.0,58.5,99,78,55,30.24,30.13,9,0,9,0.00
2013-7-15,92.3,77.9,63.9,74.1,68.5,62.4,99,76,47,30.13,30.01,10,0,10,0.00
2013-7-16,90.3,78.2,67.3,75.3,69.6,65.5,97,77,53,30.11,30.04,11,0,12,0.00
2013-7-17,84.6,74.0,64.0,74.0,68.3,62.6,98,84,66,30.13,29.89,14,1,14,0.27
2013-7-18,88.0,75.7,68.4,74.6,69.6,64.2,99,83,56,29.96,29.87,9,0,10,0.00
2013-7-19,94.0,80.1,68.8,78.5,72.8,67.6,98,80,55,29.90,29.58,12,0,13,0.00
2013-7-20,90.5,79.3,69.5,74.0,69.4,63.0,91,73,49,29.73,29.54,13,0,21,0.00
2013-7-21,77.8,68.3,58.3,63.8,59.6,55.8,97,76,52,29.98,29.73,9,0,12,0.00
2013-7-22,73.9,65.5,57.5,66.0,60.1,56.2,98,84,63,30.00,29.89,6,0,7,0.00
2013-7-23,68.3,63.8,58.3,67.2,62.9,56.6,99,97,94,29.89,29.49,6,0,9,1.17
2013-7-24,84.4,68.0,56.7,73.5,62.8,51.1,99,85,65,29.94,29.53,18,1,18,0.04
2013-7-25,73.8,62.2,51.4,63.1,55.4,48.9,97,80,58,30.08,29.93,12,1,14,0.12
2013-7-26,69.0,64.2,60.7,65.6,62.2,59.5,97,93,86,30.05,29.85,20,3,22,0.12
2013-7-27,83.2,70.6,59.6,69.6,63.6,58.4,98,80,58,29.98,29.87,10,0,13,0.00
2013-7-28,74.3,65.2,57.1,67.8,62.9,55.9,99,93,78,30.00,29.96,10,0,12,0.01
2013-7-29,77.3,30.2,63.6,99.9,85.1,63.0,98,38,74,30.02,29.95,6,-566,10,0.01
2013-7-30,-200.0,0.0,200.0,99.9,99.9,99.9,0,0,100,30.02,29.95,0,-999,0,0.00
2013-7-31,-200.0,0.0,200.0,99.9,99.9,99.9,0,0,100,30.08,29.99,0,-999,0,0.00
2013-8-1,-200.0,0.0,200.0,99.9,99.9,99.9,0,0,100,30.01,29.84,0,-999,0,0.00
2013-8-2,-200.0,0.0,200.0,99.9,99.9,99.9,0,0,100,29.84,29.71,0,-999,0,0.00
2013-8-3,-200.0,0.0,200.0,99.9,99.9,99.9,0,0,100,29.79,29.68,0,-999,0,0.00
2013-8-4,-200.0,0.0,200.0,99.9,99.9,99.9,0,0,100,29.79,29.69,0,-999,0,0.00
2013-8-5,-200.0,0.0,200.0,99.9,99.9,99.9,0,0,100,29.99,29.78,0,-999,0,0.00
2013-8-6,-200.0,0.0,200.0,99.9,99.9,99.9,0,0,100,30.11,29.98,0,-999,0,0.00
2013-8-7,77.8,21.4,69.6,99.9,88.7,57.1,74,17,50,30.15,30.07,10,-710,10,0.00
2013-8-8,75.2,11.7,71.3,99.9,95.0,67.2,88,13,82,30.08,29.96,6,-841,8,0.00
2013-8-9,-200.0,0.0,200.0,99.9,99.9,99.9,0,0,100,29.97,29.68,0,-999,0,0.00
2013-8-10,79.7,20.2,75.3,99.9,88.7,50.6,65,13,41,29.94,29.69,14,-740,14,0.00
2013-8-11,-200.0,0.0,200.0,99.9,99.9,99.9,0,0,100,30.01,29.92,0,-999,0,0.00
2013-8-12,81.0,21.1,72.8,99.9,89.1,57.0,62,15,46,29.96,29.85,10,-727,13,0.00
2013-8-13,-200.0,0.0,200.0,99.9,99.9,99.9,0,0,100,29.86,29.65,0,-999,0,0.00
2013-8-14,76.2,23.0,69.5,99.9,87.5,51.9,83,20,49,29.84,29.56,12,-688,14,0.01
2013-8-15,76.2,18.0,72.6,99.9,88.9,51.7,54,12,46,30.03,29.83,5,-758,8,0.00
2013-8-16,78.6,23.4,68.7,99.9,86.6,54.6,67,17,45,30.13,30.01,8,-689,10,0.00
2013-8-17,80.3,21.8,71.2,99.9,87.9,54.6,64,15,46,30.22,30.13,9,-714,10,0.00
2013-8-18,78.8,21.9,68.6,99.9,88.5,57.7,80,19,53,30.22,30.00,6,-704,6,0.00
2013-8-19,83.9,20.1,78.7,99.9,91.3,62.3,64,13,50,30.00,29.84,5,-755,9,0.00
2013-8-20,84.7,24.1,77.6,99.9,89.8,62.1,61,16,52,30.02,29.90,7,-706,10,0.00
2013-8-21,-200.0,0.0,200.0,99.9,99.9,99.9,0,0,100,30.08,29.94,0,-999,0,0.00
2013-8-22,-200.0,0.0,200.0,99.9,99.9,99.9,0,0,100,29.94,29.71,0,-999,0,0.00
2013-8-23,-200.0,0.0,200.0,99.9,99.9,99.9,0,0,100,30.10,29.72,0,-999,0,0.00
2013-8-24,77.7,23.3,70.7,99.9,84.5,47.7,51,13,36,30.26,30.10,11,-689,12,0.00
2013-8-25,80.2,25.1,68.5,99.9,85.1,51.4,68,17,39,30.31,30.09,9,-667,16,0.00
2013-8-26,78.0,22.9,67.1,99.9,89.9,64.5,92,24,70,30.09,29.81,4,-692,5,0.00
2013-8-27,85.6,24.5,78.7,99.9,90.6,66.7,71,19,57,29.85,29.79,9,-700,9,0.00
2013-8-28,83.4,25.6,72.8,99.9,89.9,65.3,78,22,62,29.96,29.83,7,-679,7,0.00
2013-8-29,67.3,15.5,64.0,99.9,90.6,59.5,87,20,81,30.06,29.93,14,-762,15,0.01
2013-8-30,79.8,24.5,69.6,99.9,88.8,62.7,81,24,67,29.98,29.72,10,-673,10,0.00
2013-8-31,82.4,18.7,76.1,99.9,93.1,68.7,80,17,69,29.77,29.71,6,-765,7,0.00
2013-9-1,83.5,24.1,74.4,99.9,91.5,70.1,90,22,69,29.86,29.70,7,-702,7,0.00
2013-9-2,-200.0,0.0,200.0,99.9,99.9,99.9,0,0,100,29.87,29.69,0,-999,0,0.00
2013-9-3,77.3,16.3,72.5,99.9,93.4,68.3,89,18,78,29.73,29.65,7,-783,8,0.00
2013-9-4,80.3,24.8,72.0,99.9,87.3,56.1,71,18,47,29.84,29.68,6,-678,12,0.00
2013-9-5,68.8,18.8,58.7,99.9,85.3,45.1,80,18,46,30.09,29.80,10,-705,11,0.00
2013-9-6,68.3,18.0,62.3,99.9,84.8,39.3,62,13,39,30.18,29.99,10,-724,10,0.00
2013-9-7,75.2,38.5,59.0,99.9,76.2,52.4,93,43,55,30.00,29.74,6,-426,7,0.00
2013-9-8,64.8,57.2,41.8,59.0,50.1,39.3,98,79,49,30.02,29.66,19,1,29,0.17
2013-9-9,64.7,52.8,38.2,54.6,45.8,37.1,98,79,51,30.16,30.02,11,0,12,0.00
2013-9-10,64.4,59.7,50.0,62.2,56.7,47.4,97,90,79,30.08,29.98,7,0,9,0.00
2013-9-11,88.4,73.0,61.8,78.2,68.7,60.9,99,88,69,30.00,29.84,12,0,14,0.35
2013-9-12,77.6,67.7,64.0,71.3,66.5,63.1,99,96,79,29.93,29.60,12,0,12,1.15
2013-9-13,67.3,63.7,56.4,66.9,63.2,55.5,100,99,97,29.67,29.54,14,0,18,1.17
2013-9-14,70.0,59.6,51.8,59.9,54.7,48.8,99,85,61,29.98,29.66,11,0,12,0.00
2013-9-15,67.3,54.8,42.5,55.0,49.3,41.2,98,83,57,30.09,29.95,7,0,10,0.00
2013-9-16,64.0,54.0,41.6,58.2,50.3,37.3,98,88,69,30.22,29.91,13,0,17,0.03
2013-9-17,64.9,49.0,34.3,52.4,41.0,32.8,97,77,46,30.36,30.22,15,1,18,0.00
2013-9-18,72.6,55.3,39.7,52.8,45.4,38.6,96,74,42,30.25,30.05,8,0,9,0.01
2013-9-19,76.0,56.1,41.0,57.1,47.9,40.2,99,78,44,30.08,29.98,9,0,9,0.00
2013-9-20,78.3,57.8,42.2,59.2,50.4,41.1,99,80,46,30.07,29.98,6,0,7,0.00
2013-9-21,64.1,59.2,50.7,61.7,57.5,49.3,99,94,86,29.99,29.72,10,1,14,0.01
2013-9-22,71.3,63.0,48.2,64.6,58.9,45.3,99,87,59,29.72,29.53,13,1,15,0.61
2013-9-23,57.6,49.3,41.8,45.2,42.0,39.6,95,77,58,29.90,29.71,23,1,24,0.01
2013-9-24,55.4,49.0,41.7,45.2,42.5,39.8,94,79,65,29.89,29.79,15,0,17,0.00
2013-9-25,63.5,52.7,41.0,53.0,45.9,39.4,97,79,56,29.93,29.82,15,1,17,0.00
2013-9-26,64.5,53.8,41.4,51.8,47.6,40.1,98,81,61,30.09,29.93,20,2,20,0.00
2013-9-27,70.1,58.9,49.0,57.4,52.2,47.6,95,80,57,30.20,30.09,11,1,13,0.00
2013-9-28,75.0,56.2,44.1,57.5,49.2,43.1,99,80,45,30.29,30.20,11,0,12,0.01
2013-9-29,67.5,51.7,42.7,58.1,46.6,40.8,99,85,51,30.23,30.09,6,0,6,0.01
2013-9-30,67.5,50.1,39.0,56.1,46.0,37.6,99,88,53,30.10,29.93,6,0,6,0.01
2013-10-1,75.5,55.5,38.5,59.9,48.5,37.4,99,81,46,29.93,29.77,15,0,20,0.00
2013-10-2,79.5,61.8,47.4,62.1,54.5,46.5,100,80,50,29.85,29.70,7,0,11,0.00
2013-10-3,77.0,58.2,44.2,55.1,48.7,43.1,98,75,40,30.02,29.85,11,0,15,0.01
2013-10-4,72.0,56.5,42.3,58.5,49.4,41.2,98,80,50,30.05,29.97,4,0,5,0.00
2013-10-5,62.2,55.2,44.6,51.2,46.6,43.1,95,74,57,30.11,30.03,6,0,6,0.00
2013-10-6,55.7,49.8,43.2,48.1,43.1,37.9,97,79,54,30.24,30.10,10,0,13,0.12
2013-10-7,66.2,58.6,48.8,65.0,58.0,47.9,99,98,95,30.17,29.75,21,1,23,0.23
2013-10-8,62.2,52.8,36.6,60.5,44.8,34.8,97,77,47,30.35,29.78,19,1,20,0.00
2013-10-9,63.4,45.0,31.2,46.1,38.1,29.9,98,80,45,30.45,30.33,5,0,7,0.01
2013-10-10,64.8,46.6,31.2,50.3,40.8,30.0,98,83,46,30.33,30.15,5,0,6,0.00
2013-10-11,67.5,53.0,40.4,57.8,48.0,39.3,98,85,54,30.15,30.08,7,0,7,0.00
2013-10-12,58.3,52.5,46.5,52.3,49.2,45.3,98,89,74,30.39,30.13,11,1,11,0.01
2013-10-13,57.2,50.7,38.6,49.4,46.6,36.8,98,87,69,30.43,30.35,4,0,5,0.00
2013-10-14,61.8,48.0,32.6,50.6,43.0,31.6,98,84,59,30.35,30.20,10,0,10,0.01
2013-10-15,66.3,55.6,48.9,54.3,51.0,47.7,98,86,63,30.24,30.16,9,0,10,0.00
2013-10-16,61.1,55.6,51.0,54.8,52.3,49.3,97,89,69,30.17,29.85,6,0,9,0.00
2013-10-17,70.3,58.0,48.6,58.9,53.8,47.3,97,87,66,29.85,29.67,6,0,7,0.00
2013-10-18,68.1,56.9,46.4,57.2,51.1,43.1,99,83,49,29.78,29.53,11,0,17,0.23
2013-10-19,63.7,50.8,35.7,49.8,43.7,34.3,98,79,51,29.89,29.71,11,0,11,0.00
2013-10-20,63.2,52.9,35.6,51.7,42.5,32.8,97,72,36,29.91,29.61,16,0,16,0.03
2013-10-21,63.7,46.1,32.0,47.9,39.2,30.4,97,80,41,30.04,29.91,6,0,12,0.00
2013-10-22,59.6,52.5,39.3,54.0,49.1,37.4,97,89,74,29.93,29.65,12,1,13,0.08
2013-10-23,53.9,42.0,30.9,43.0,36.9,29.9,98,84,54,29.73,29.54,6,0,10,0.00
2013-10-24,53.3,41.5,29.2,38.1,31.9,27.5,96,71,41,29.77,29.55,11,0,14,0.01
2013-10-25,50.2,38.0,27.8,36.6,29.5,23.9,97,74,48,30.05,29.77,14,0,17,0.00
2013-10-26,49.5,39.1,24.2,37.6,30.3,22.5,96,73,51,30.06,29.82,12,1,15,0.01
2013-10-27,56.7,45.2,31.4,41.1,36.1,26.8,94,72,48,29.97,29.73,12,0,13,0.03
2013-10-28,55.2,38.4,25.9,38.2,29.6,23.3,96,72,50,30.31,29.96,19,1,21,0.00
2013-10-29,48.2,32.4,21.4,28.7,23.3,19.2,95,73,33,30.41,30.30,7,0,9,0.00
2013-10-30,49.8,32.7,22.2,31.6,25.5,20.2,100,78,39,30.31,30.12,10,0,11,0.00
2013-10-31,55.1,39.3,22.9,54.5,37.4,21.3,98,93,81,30.21,29.73,13,1,16,0.27
2013-11-1,65.4,58.0,54.1,59.4,55.4,48.7,99,92,80,29.73,29.30,21,2,23,0.17
2013-11-2,65.6,51.1,36.3,48.7,43.8,34.9,98,78,47,29.73,29.51,18,1,18,0.02
2013-11-3,43.7,37.3,27.0,39.3,26.3,19.0,87,65,44,30.38,29.72,22,3,24,0.00
2013-11-4,40.9,29.3,21.5,21.2,18.8,16.7,92,67,40,30.67,30.38,16,1,19,0.00
2013-11-5,46.7,31.5,18.6,33.8,26.1,16.6,95,82,58,30.68,30.46,9,0,11,0.00
2013-11-6,54.1,43.3,29.4,49.2,40.0,28.1,97,89,71,30.46,29.94,16,1,16,0.00
2013-11-7,58.1,50.3,35.9,55.7,46.7,27.4,96,88,66,29.94,29.58,16,1,20,0.04
2013-11-8,46.9,37.7,27.1,28.3,25.5,23.2,89,62,44,29.95,29.72,16,1,16,0.00
2013-11-9,46.7,36.5,27.8,27.8,23.3,21.4,87,60,39,30.07,29.94,13,0,17,0.00
2013-11-10,42.6,36.0,30.8,39.2,33.5,27.5,96,91,84,30.02,29.67,3,0,4,0.01
2013-11-11,47.2,38.2,31.4,34.1,30.5,28.1,97,75,52,29.98,29.70,13,0,15,0.01
2013-11-12,42.4,32.6,26.3,31.7,20.7,15.0,77,61,51,30.06,29.77,19,2,24,0.00
2013-11-13,34.8,26.8,20.3,15.9,13.8,11.1,74,58,43,30.19,30.04,15,1,18,0.00
2013-11-14,48.6,34.1,24.1,28.7,22.5,14.5,91,64,41,30.05,29.94,7,0,7,0.00
2013-11-15,52.0,34.0,22.2,33.2,26.0,20.4,96,76,37,30.14,30.03,9,0,9,0.00
2013-11-16,54.0,36.3,27.7,36.3,30.6,25.6,96,82,50,30.30,30.12,6,0,6,0.00
2013-11-17,53.3,44.8,35.0,52.7,42.5,33.9,98,92,75,30.31,29.88,10,0,10,0.20
2013-11-18,62.4,53.4,42.3,56.3,48.1,35.8,99,84,53,29.87,29.43,17,1,20,0.55
2013-11-19,45.6,35.6,30.3,35.9,22.7,16.9,81,59,49,30.17,29.51,22,2,29,0.01
2013-11-20,39.9,29.8,19.7,16.9,15.1,11.9,86,56,34,30.59,30.16,18,2,25,0.00
2013-11-21,45.9,29.2,16.9,24.5,19.3,14.5,94,70,31,30.60,30.28,6,0,6,0.00
2013-11-22,37.1,32.8,27.0,34.4,28.4,19.3,96,84,67,30.28,29.73,3,0,4,0.03
2013-11-23,41.0,33.0,21.4,34.7,23.3,14.5,96,70,37,29.77,29.63,22,1,27,0.00
2013-11-24,25.0,20.8,17.2,22.3,7.6,1.9,91,57,44,29.96,29.63,26,3,34,0.00
2013-11-25,29.7,21.2,15.1,15.1,4.9,0.0,68,49,34,30.27,29.95,18,1,18,0.00
2013-11-26,32.8,29.8,25.7,29.2,24.5,14.2,95,82,53,30.27,30.11,6,0,6,0.05
2013-11-27,57.5,46.9,30.5,57.2,46.2,29.2,99,98,94,30.11,29.10,21,3,25,2.48
2013-11-28,37.6,28.6,18.5,36.0,17.4,7.2,94,64,41,30.35,29.24,17,1,24,0.00
2013-11-29,26.5,19.0,12.6,12.5,9.1,5.7,88,67,43,30.70,30.34,15,1,21,0.00
2013-11-30,29.6,19.3,8.0,20.5,11.7,5.5,91,74,39,30.78,30.39,6,0,6,0.00
2013-12-1,33.1,30.3,24.6,32.3,27.9,20.5,97,91,78,30.39,30.03,13,0,13,0.43
2013-12-2,36.0,33.9,33.0,35.4,33.2,32.2,98,97,97,30.03,29.88,13,2,16,0.18
2013-12-3,41.1,35.0,29.6,38.8,33.8,28.1,98,96,90,29.89,29.80,14,1,15,0.00
2013-12-4,41.6,32.0,23.8,29.9,26.3,22.1,94,80,61,30.18,29.83,12,0,13,0.01
2013-12-5,40.1,30.8,22.1,39.5,29.6,20.6,98,95,93,30.23,29.86,4,0,5,0.02
2013-12-6,43.4,38.5,34.4,42.2,36.7,28.5,99,94,79,30.07,29.80,13,0,13,0.11
2013-12-7,38.6,31.4,22.9,29.9,20.2,9.4,94,64,47,30.37,30.02,22,1,26,0.00
2013-12-8,28.2,23.8,20.2,17.3,10.9,7.8,81,58,43,30.54,30.37,16,1,18,0.00
2013-12-9,27.5,24.1,22.0,26.0,18.7,10.7,95,81,59,30.50,29.79,12,1,12,0.00
2013-12-10,31.4,24.1,16.0,30.1,22.6,13.4,96,94,90,29.87,29.68,9,0,9,0.00
2013-12-11,29.0,17.5,6.1,22.0,13.6,3.6,93,85,66,30.08,29.87,10,0,10,0.06
2013-12-12,18.2,10.3,1.1,15.2,2.8,-2.3,89,72,44,30.20,29.96,17,0,21,0.01
2013-12-13,23.0,12.3,2.9,13.2,3.3,-6.8,85,67,52,30.35,29.86,16,1,16,0.00
2013-12-14,15.5,5.4,-5.2,99.9,21.8,-99.9,87,64,40,30.59,30.34,16,1,18,0.00
2013-12-15,16.0,10.9,7.4,13.4,8.4,4.9,91,89,87,30.35,29.38,27,5,30,0.00
2013-12-16,23.4,9.7,-0.8,99.9,18.6,-4.6,92,80,63,30.17,29.61,13,0,17,0.02
2013-12-17,12.5,2.5,-14.5,99.9,40.9,-4.6,89,79,64,30.28,29.99,10,1,10,0.00
2013-12-18,28.8,16.8,7.7,23.7,13.6,5.0,91,87,77,30.00,29.80,17,2,18,0.01
2013-12-19,30.8,20.5,7.7,26.3,17.8,5.2,94,89,80,30.05,29.88,5,0,6,0.00
2013-12-20,38.2,28.6,17.4,35.3,27.1,15.8,97,94,88,30.09,29.86,3,0,3,0.01
2013-12-21,33.9,31.4,28.5,32.6,30.6,27.7,97,97,95,29.92,29.79,7,0,7,0.11
2013-12-22,31.6,28.0,24.8,30.8,27.0,23.6,97,96,95,30.06,29.82,16,1,17,0.07
2013-12-23,31.7,29.1,25.3,31.2,28.3,24.4,98,97,96,30.08,29.92,0,0,0,0.00
2013-12-24,31.7,10.8,23.8,99.9,71.6,21.0,98,36,86,30.13,30.02,0,-614,0,0.00
2013-12-25,19.7,4.0,7.4,99.9,75.5,3.8,92,23,80,30.52,30.13,0,-727,0,0.00
2013-12-26,-200.0,0.0,200.0,99.9,99.9,99.9,0,0,100,30.48,30.02,0,-999,0,0.00
2013-12-27,32.6,7.5,15.0,99.9,79.4,13.2,95,25,85,30.15,30.08,0,-726,0,0.00
2013-12-28,35.6,3.7,32.5,99.9,92.5,30.0,91,10,86,30.12,29.89,1,-891,2,0.00
2013-12-29,-200.0,0.0,200.0,99.9,99.9,99.9,0,0,100,29.99,29.48,0,-999,0,0.00
2013-12-30,32.6,4.1,23.5,99.9,89.0,18.3,93,12,76,30.14,29.47,17,-856,17,0.00
2013-12-31,9.3,1.5,5.9,99.9,82.5,0.6,83,14,73,30.13,30.00,8,-819,9,0.00
2014-1-1,21.1,4.2,-4.9,99.9,77.1,-1.9,91,22,66,30.37,30.07,6,-722,9,0.00
2014-1-2,-200.0,0.0,200.0,99.9,99.9,99.9,0,0,100,30.41,29.94,0,-999,0,0.00